sensor_id;sensor_type;location;lat;lon;timestamp;pressure;altitude;pressure_sealevel;temperature;humidity
31483;BME280;18103;52.246;8.052;2023-03-14T00:01:37;97776.56;;;11.72;76.67
31483;BME280;18103;52.246;8.052;2023-03-14T00:04:04;97783.94;;;11.77;76.20
31483;BME280;18103;52.246;8.052;2023-03-14T00:06:32;97794.50;;;11.77;76.54
31483;BME280;18103;52.246;8.052;2023-03-14T00:09:00;97787.19;;;11.79;76.30
31483;BME280;18103;52.246;8.052;2023-03-14T00:11:28;97773.34;;;11.77;76.34
31483;BME280;18103;52.246;8.052;2023-03-14T00:13:55;97775.31;;;11.68;76.61
31483;BME280;18103;52.246;8.052;2023-03-14T00:16:25;97783.69;;;11.72;76.22
31483;BME280;18103;52.246;8.052;2023-03-14T00:18:50;97770.41;;;11.65;76.42
31483;BME280;18103;52.246;8.052;2023-03-14T00:21:16;97776.88;;;11.62;76.65
31483;BME280;18103;52.246;8.052;2023-03-14T00:23:44;97779.34;;;11.64;76.36
31483;BME280;18103;52.246;8.052;2023-03-14T00:26:14;97790.66;;;11.58;76.88
31483;BME280;18103;52.246;8.052;2023-03-14T00:28:41;97781.56;;;11.60;76.47
31483;BME280;18103;52.246;8.052;2023-03-14T00:31:08;97783.75;;;11.57;76.59
31483;BME280;18103;52.246;8.052;2023-03-14T00:33:36;97772.19;;;11.58;76.46
31483;BME280;18103;52.246;8.052;2023-03-14T00:36:07;97767.66;;;11.52;76.75
31483;BME280;18103;52.246;8.052;2023-03-14T00:38:36;97762.13;;;11.46;76.95
31483;BME280;18103;52.246;8.052;2023-03-14T00:41:09;97763.13;;;11.45;76.99
31483;BME280;18103;52.246;8.052;2023-03-14T00:43:35;97756.25;;;11.44;76.82
31483;BME280;18103;52.246;8.052;2023-03-14T00:46:02;97736.50;;;11.40;77.08
31483;BME280;18103;52.246;8.052;2023-03-14T00:48:27;97737.03;;;11.36;77.01
31483;BME280;18103;52.246;8.052;2023-03-14T00:50:53;97713.91;;;11.38;77.01
31483;BME280;18103;52.246;8.052;2023-03-14T00:53:21;97698.00;;;11.31;76.93
31483;BME280;18103;52.246;8.052;2023-03-14T00:55:47;97686.06;;;11.35;76.90
31483;BME280;18103;52.246;8.052;2023-03-14T00:58:14;97704.28;;;11.30;76.83
31483;BME280;18103;52.246;8.052;2023-03-14T01:00:40;97707.13;;;11.28;77.13
31483;BME280;18103;52.246;8.052;2023-03-14T01:03:07;97711.78;;;11.26;76.82
31483;BME280;18103;52.246;8.052;2023-03-14T01:05:32;97720.25;;;11.22;77.29
31483;BME280;18103;52.246;8.052;2023-03-14T01:08:02;97723.94;;;11.21;77.34
31483;BME280;18103;52.246;8.052;2023-03-14T01:10:30;97745.25;;;11.19;77.15
31483;BME280;18103;52.246;8.052;2023-03-14T01:13:01;97736.50;;;11.19;77.17
31483;BME280;18103;52.246;8.052;2023-03-14T01:15:26;97729.09;;;11.07;77.37
31483;BME280;18103;52.246;8.052;2023-03-14T01:17:54;97719.78;;;11.11;77.48
31483;BME280;18103;52.246;8.052;2023-03-14T01:20:21;97714.50;;;11.11;77.23
31483;BME280;18103;52.246;8.052;2023-03-14T01:22:49;97701.88;;;11.07;77.22
31483;BME280;18103;52.246;8.052;2023-03-14T01:25:18;97698.97;;;11.02;77.30
31483;BME280;18103;52.246;8.052;2023-03-14T01:27:48;97698.16;;;11.01;77.67
31483;BME280;18103;52.246;8.052;2023-03-14T01:30:14;97686.16;;;10.99;77.62
31483;BME280;18103;52.246;8.052;2023-03-14T01:32:41;97692.91;;;11.01;77.41
31483;BME280;18103;52.246;8.052;2023-03-14T01:35:07;97707.69;;;11.02;77.50
31483;BME280;18103;52.246;8.052;2023-03-14T01:37:33;97710.00;;;11.05;77.16
31483;BME280;18103;52.246;8.052;2023-03-14T01:40:01;97714.81;;;11.02;77.17
31483;BME280;18103;52.246;8.052;2023-03-14T01:42:26;97715.00;;;11.00;77.38
31483;BME280;18103;52.246;8.052;2023-03-14T01:47:20;97708.41;;;11.11;77.17
31483;BME280;18103;52.246;8.052;2023-03-14T01:49:59;97701.50;;;11.10;76.96
31483;BME280;18103;52.246;8.052;2023-03-14T01:52:35;97712.44;;;11.07;76.89
31483;BME280;18103;52.246;8.052;2023-03-14T01:55:05;97710.59;;;11.07;76.89
31483;BME280;18103;52.246;8.052;2023-03-14T01:57:35;97709.03;;;11.13;76.79
31483;BME280;18103;52.246;8.052;2023-03-14T02:00:17;97708.03;;;11.14;76.57
31483;BME280;18103;52.246;8.052;2023-03-14T02:02:45;97709.41;;;11.10;76.68
31483;BME280;18103;52.246;8.052;2023-03-14T02:05:17;97705.38;;;11.14;76.20
31483;BME280;18103;52.246;8.052;2023-03-14T02:07:47;97696.63;;;11.13;76.36
31483;BME280;18103;52.246;8.052;2023-03-14T02:10:20;97699.28;;;11.13;76.06
31483;BME280;18103;52.246;8.052;2023-03-14T02:12:48;97693.38;;;11.11;76.34
31483;BME280;18103;52.246;8.052;2023-03-14T02:15:14;97690.16;;;11.16;75.80
31483;BME280;18103;52.246;8.052;2023-03-14T02:17:43;97688.72;;;11.13;76.80
31483;BME280;18103;52.246;8.052;2023-03-14T02:22:42;97701.13;;;10.91;78.71
31483;BME280;18103;52.246;8.052;2023-03-14T02:27:47;97691.63;;;10.75;80.92
31483;BME280;18103;52.246;8.052;2023-03-14T02:32:54;97703.13;;;10.68;81.66
31483;BME280;18103;52.246;8.052;2023-03-14T02:35:27;97701.28;;;10.68;81.50
31483;BME280;18103;52.246;8.052;2023-03-14T02:37:56;97706.38;;;10.70;82.09
31483;BME280;18103;52.246;8.052;2023-03-14T02:40:24;97701.06;;;10.48;83.45
31483;BME280;18103;52.246;8.052;2023-03-14T02:42:49;97709.38;;;10.45;83.23
31483;BME280;18103;52.246;8.052;2023-03-14T02:47:46;97713.00;;;10.44;83.74
31483;BME280;18103;52.246;8.052;2023-03-14T02:50:17;97701.47;;;10.45;83.36
31483;BME280;18103;52.246;8.052;2023-03-14T02:52:44;97698.28;;;10.35;84.36
31483;BME280;18103;52.246;8.052;2023-03-14T02:55:09;97703.09;;;10.31;84.08
31483;BME280;18103;52.246;8.052;2023-03-14T02:57:35;97705.25;;;10.27;83.90
31483;BME280;18103;52.246;8.052;2023-03-14T03:00:02;97691.69;;;10.31;84.00
31483;BME280;18103;52.246;8.052;2023-03-14T03:02:29;97690.53;;;10.18;83.79
31483;BME280;18103;52.246;8.052;2023-03-14T03:04:55;97701.44;;;10.15;84.15
31483;BME280;18103;52.246;8.052;2023-03-14T03:07:20;97697.03;;;10.16;84.36
31483;BME280;18103;52.246;8.052;2023-03-14T03:09:46;97694.47;;;10.07;83.99
31483;BME280;18103;52.246;8.052;2023-03-14T03:12:14;97700.19;;;10.11;83.79
31483;BME280;18103;52.246;8.052;2023-03-14T03:14:39;97692.47;;;10.09;84.36
31483;BME280;18103;52.246;8.052;2023-03-14T03:17:08;97710.28;;;10.07;84.27
31483;BME280;18103;52.246;8.052;2023-03-14T03:19:33;97704.03;;;9.93;84.08
31483;BME280;18103;52.246;8.052;2023-03-14T03:22:01;97697.66;;;9.88;84.18
31483;BME280;18103;52.246;8.052;2023-03-14T03:24:29;97694.00;;;9.89;83.79
31483;BME280;18103;52.246;8.052;2023-03-14T03:26:54;97699.22;;;9.82;84.20
31483;BME280;18103;52.246;8.052;2023-03-14T03:29:25;97700.38;;;9.80;84.28
31483;BME280;18103;52.246;8.052;2023-03-14T03:31:53;97704.63;;;9.81;84.14
31483;BME280;18103;52.246;8.052;2023-03-14T03:34:18;97707.44;;;9.79;83.97
31483;BME280;18103;52.246;8.052;2023-03-14T03:36:46;97693.63;;;9.62;84.53
31483;BME280;18103;52.246;8.052;2023-03-14T03:39:14;97695.91;;;9.65;84.05
31483;BME280;18103;52.246;8.052;2023-03-14T03:41:42;97694.28;;;9.64;84.04
31483;BME280;18103;52.246;8.052;2023-03-14T03:44:07;97698.28;;;9.60;84.06
31483;BME280;18103;52.246;8.052;2023-03-14T03:46:37;97689.28;;;9.69;83.50
31483;BME280;18103;52.246;8.052;2023-03-14T03:49:02;97700.63;;;9.55;83.83
31483;BME280;18103;52.246;8.052;2023-03-14T03:51:28;97692.00;;;9.46;83.96
31483;BME280;18103;52.246;8.052;2023-03-14T03:53:53;97699.25;;;9.44;84.12
31483;BME280;18103;52.246;8.052;2023-03-14T03:56:18;97693.63;;;9.47;83.93
31483;BME280;18103;52.246;8.052;2023-03-14T03:58:44;97693.63;;;9.47;83.78
31483;BME280;18103;52.246;8.052;2023-03-14T04:01:10;97700.59;;;9.40;83.65
31483;BME280;18103;52.246;8.052;2023-03-14T04:03:38;97699.78;;;9.39;84.15
31483;BME280;18103;52.246;8.052;2023-03-14T04:06:09;97700.59;;;9.40;84.19
31483;BME280;18103;52.246;8.052;2023-03-14T04:08:38;97690.59;;;9.35;83.96
31483;BME280;18103;52.246;8.052;2023-03-14T04:11:06;97701.31;;;9.34;84.11
31483;BME280;18103;52.246;8.052;2023-03-14T04:13:32;97707.69;;;9.39;83.82
31483;BME280;18103;52.246;8.052;2023-03-14T04:15:57;97707.06;;;9.37;84.00
31483;BME280;18103;52.246;8.052;2023-03-14T04:18:23;97699.50;;;9.34;84.01
31483;BME280;18103;52.246;8.052;2023-03-14T04:20:55;97694.88;;;9.36;84.22
31483;BME280;18103;52.246;8.052;2023-03-14T04:23:22;97687.28;;;9.41;83.74
31483;BME280;18103;52.246;8.052;2023-03-14T04:25:51;97678.81;;;9.31;84.08
31483;BME280;18103;52.246;8.052;2023-03-14T04:28:19;97675.00;;;9.34;83.79
31483;BME280;18103;52.246;8.052;2023-03-14T04:30:45;97668.75;;;9.35;83.67
31483;BME280;18103;52.246;8.052;2023-03-14T04:33:10;97673.16;;;9.34;83.75
31483;BME280;18103;52.246;8.052;2023-03-14T04:35:37;97672.72;;;9.31;83.60
31483;BME280;18103;52.246;8.052;2023-03-14T04:38:03;97674.00;;;9.35;83.42
31483;BME280;18103;52.246;8.052;2023-03-14T04:40:33;97674.44;;;9.38;83.84
31483;BME280;18103;52.246;8.052;2023-03-14T04:43:03;97669.38;;;9.37;83.60
31483;BME280;18103;52.246;8.052;2023-03-14T04:45:28;97668.38;;;9.38;83.28
31483;BME280;18103;52.246;8.052;2023-03-14T04:47:56;97666.09;;;9.35;83.21
31483;BME280;18103;52.246;8.052;2023-03-14T04:50:22;97657.03;;;9.37;83.11
31483;BME280;18103;52.246;8.052;2023-03-14T04:52:47;97665.19;;;9.42;82.88
31483;BME280;18103;52.246;8.052;2023-03-14T04:55:13;97656.19;;;9.37;82.85
31483;BME280;18103;52.246;8.052;2023-03-14T04:57:38;97652.09;;;9.34;83.30
31483;BME280;18103;52.246;8.052;2023-03-14T05:00:11;97652.28;;;9.33;83.22
31483;BME280;18103;52.246;8.052;2023-03-14T05:02:37;97647.31;;;9.38;83.16
31483;BME280;18103;52.246;8.052;2023-03-14T05:05:02;97647.13;;;9.39;83.19
31483;BME280;18103;52.246;8.052;2023-03-14T05:07:31;97643.22;;;9.35;83.18
31483;BME280;18103;52.246;8.052;2023-03-14T05:10:01;97646.31;;;9.39;83.24
31483;BME280;18103;52.246;8.052;2023-03-14T05:12:26;97639.25;;;9.39;83.23
31483;BME280;18103;52.246;8.052;2023-03-14T05:14:54;97651.13;;;9.35;83.26
31483;BME280;18103;52.246;8.052;2023-03-14T05:17:20;97630.53;;;9.39;83.00
31483;BME280;18103;52.246;8.052;2023-03-14T05:19:48;97636.72;;;9.46;83.16
31483;BME280;18103;52.246;8.052;2023-03-14T05:22:13;97639.88;;;9.41;83.56
31483;BME280;18103;52.246;8.052;2023-03-14T05:24:41;97639.34;;;9.46;82.93
31483;BME280;18103;52.246;8.052;2023-03-14T05:27:06;97632.72;;;9.50;82.92
31483;BME280;18103;52.246;8.052;2023-03-14T05:29:32;97629.00;;;9.45;83.16
31483;BME280;18103;52.246;8.052;2023-03-14T05:31:57;97625.72;;;9.42;83.29
31483;BME280;18103;52.246;8.052;2023-03-14T05:34:27;97629.72;;;9.53;83.03
31483;BME280;18103;52.246;8.052;2023-03-14T05:36:53;97629.91;;;9.52;82.96
31483;BME280;18103;52.246;8.052;2023-03-14T05:39:18;97622.38;;;9.49;83.05
31483;BME280;18103;52.246;8.052;2023-03-14T05:41:43;97631.97;;;9.56;82.85
31483;BME280;18103;52.246;8.052;2023-03-14T05:44:09;97645.97;;;9.57;82.89
31483;BME280;18103;52.246;8.052;2023-03-14T05:46:34;97631.78;;;9.58;82.90
31483;BME280;18103;52.246;8.052;2023-03-14T05:49:02;97627.69;;;9.55;82.75
31483;BME280;18103;52.246;8.052;2023-03-14T05:51:27;97616.38;;;9.55;83.40
31483;BME280;18103;52.246;8.052;2023-03-14T05:53:53;97626.44;;;9.51;83.03
31483;BME280;18103;52.246;8.052;2023-03-14T05:56:18;97616.72;;;9.52;82.61
31483;BME280;18103;52.246;8.052;2023-03-14T05:58:46;97619.66;;;9.57;82.50
31483;BME280;18103;52.246;8.052;2023-03-14T06:01:11;97625.25;;;9.54;82.66
31483;BME280;18103;52.246;8.052;2023-03-14T06:03:39;97624.91;;;9.57;82.46
31483;BME280;18103;52.246;8.052;2023-03-14T06:06:05;97627.69;;;9.55;82.62
31483;BME280;18103;52.246;8.052;2023-03-14T06:08:31;97628.91;;;9.53;82.58
31483;BME280;18103;52.246;8.052;2023-03-14T06:11:02;97622.28;;;9.57;82.07
31483;BME280;18103;52.246;8.052;2023-03-14T06:13:27;97625.91;;;9.56;82.15
31483;BME280;18103;52.246;8.052;2023-03-14T06:15:53;97621.63;;;9.55;82.26
31483;BME280;18103;52.246;8.052;2023-03-14T06:18:18;97626.09;;;9.54;82.45
31483;BME280;18103;52.246;8.052;2023-03-14T06:20:44;97629.53;;;9.55;82.19
31483;BME280;18103;52.246;8.052;2023-03-14T06:23:09;97627.16;;;9.45;82.70
31483;BME280;18103;52.246;8.052;2023-03-14T06:25:35;97626.09;;;9.54;82.00
31483;BME280;18103;52.246;8.052;2023-03-14T06:28:01;97621.44;;;9.56;82.21
31483;BME280;18103;52.246;8.052;2023-03-14T06:30:29;97625.91;;;9.56;81.96
31483;BME280;18103;52.246;8.052;2023-03-14T06:32:57;97622.63;;;9.54;82.14
31483;BME280;18103;52.246;8.052;2023-03-14T06:35:23;97622.00;;;9.52;82.07
31483;BME280;18103;52.246;8.052;2023-03-14T06:37:48;97628.25;;;9.51;82.17
31483;BME280;18103;52.246;8.052;2023-03-14T06:40:14;97629.19;;;9.43;81.97
31483;BME280;18103;52.246;8.052;2023-03-14T06:42:44;97623.97;;;9.50;81.84
31483;BME280;18103;52.246;8.052;2023-03-14T06:45:10;97631.81;;;9.43;81.94
31483;BME280;18103;52.246;8.052;2023-03-14T06:47:36;97632.06;;;9.48;81.98
31483;BME280;18103;52.246;8.052;2023-03-14T06:50:05;97641.13;;;9.46;81.88
31483;BME280;18103;52.246;8.052;2023-03-14T06:52:31;97625.25;;;9.54;81.89
31483;BME280;18103;52.246;8.052;2023-03-14T06:54:56;97619.00;;;9.55;81.75
31483;BME280;18103;52.246;8.052;2023-03-14T06:57:24;97622.28;;;9.57;82.38
31483;BME280;18103;52.246;8.052;2023-03-14T06:59:49;97626.34;;;9.59;82.81
31483;BME280;18103;52.246;8.052;2023-03-14T07:02:15;97631.72;;;9.66;82.78
31483;BME280;18103;52.246;8.052;2023-03-14T07:04:41;97643.34;;;9.57;82.37
31483;BME280;18103;52.246;8.052;2023-03-14T07:07:06;97631.78;;;9.58;82.94
31483;BME280;18103;52.246;8.052;2023-03-14T07:09:32;97641.41;;;9.51;83.96
31483;BME280;18103;52.246;8.052;2023-03-14T07:11:57;97638.16;;;9.49;84.13
31483;BME280;18103;52.246;8.052;2023-03-14T07:14:28;97643.94;;;9.44;84.76
31483;BME280;18103;52.246;8.052;2023-03-14T07:16:56;97634.78;;;9.40;84.75
31483;BME280;18103;52.246;8.052;2023-03-14T07:19:21;97642.78;;;9.47;84.42
31483;BME280;18103;52.246;8.052;2023-03-14T07:21:47;97637.97;;;9.35;85.08
31483;BME280;18103;52.246;8.052;2023-03-14T07:24:15;97641.06;;;9.39;85.21
31483;BME280;18103;52.246;8.052;2023-03-14T07:26:40;97644.50;;;9.39;85.30
31483;BME280;18103;52.246;8.052;2023-03-14T07:29:05;97644.41;;;9.48;84.93
31483;BME280;18103;52.246;8.052;2023-03-14T07:31:31;97652.94;;;9.50;85.24
31483;BME280;18103;52.246;8.052;2023-03-14T07:33:59;97653.69;;;9.44;85.38
31483;BME280;18103;52.246;8.052;2023-03-14T07:36:24;97641.41;;;9.36;85.74
31483;BME280;18103;52.246;8.052;2023-03-14T07:38:52;97657.94;;;9.45;85.51
31483;BME280;18103;52.246;8.052;2023-03-14T07:41:18;97658.22;;;9.35;86.36
31483;BME280;18103;52.246;8.052;2023-03-14T07:43:48;97662.63;;;9.34;86.53
31483;BME280;18103;52.246;8.052;2023-03-14T07:46:13;97655.28;;;9.30;87.30
31483;BME280;18103;52.246;8.052;2023-03-14T07:48:40;97655.75;;;9.33;87.36
31483;BME280;18103;52.246;8.052;2023-03-14T07:51:08;97659.81;;;9.36;87.17
31483;BME280;18103;52.246;8.052;2023-03-14T07:53:34;97672.00;;;9.22;87.69
31483;BME280;18103;52.246;8.052;2023-03-14T07:55:59;97668.69;;;9.20;87.92
31483;BME280;18103;52.246;8.052;2023-03-14T07:58:29;97667.00;;;9.27;87.81
31483;BME280;18103;52.246;8.052;2023-03-14T08:00:55;97673.16;;;9.34;87.43
31483;BME280;18103;52.246;8.052;2023-03-14T08:03:20;97672.66;;;9.39;87.48
31483;BME280;18103;52.246;8.052;2023-03-14T08:05:50;97671.00;;;9.38;87.59
31483;BME280;18103;52.246;8.052;2023-03-14T08:08:16;97678.53;;;9.41;87.24
31483;BME280;18103;52.246;8.052;2023-03-14T08:10:41;97679.81;;;9.45;87.76
31483;BME280;18103;52.246;8.052;2023-03-14T08:13:10;97682.34;;;9.38;88.11
31483;BME280;18103;52.246;8.052;2023-03-14T08:15:35;97685.56;;;9.49;87.74
31483;BME280;18103;52.246;8.052;2023-03-14T08:18:02;97683.50;;;9.36;88.04
31483;BME280;18103;52.246;8.052;2023-03-14T08:20:30;97682.16;;;9.40;88.27
31483;BME280;18103;52.246;8.052;2023-03-14T08:22:59;97681.00;;;9.42;87.32
31483;BME280;18103;52.246;8.052;2023-03-14T08:25:25;97671.47;;;9.56;87.03
31483;BME280;18103;52.246;8.052;2023-03-14T08:27:54;97676.13;;;9.54;87.04
31483;BME280;18103;52.246;8.052;2023-03-14T08:30:21;97681.28;;;9.48;87.60
31483;BME280;18103;52.246;8.052;2023-03-14T08:32:46;97679.00;;;9.59;87.11
31483;BME280;18103;52.246;8.052;2023-03-14T08:35:12;97668.56;;;9.66;86.92
31483;BME280;18103;52.246;8.052;2023-03-14T08:37:38;97669.31;;;9.60;87.04
31483;BME280;18103;52.246;8.052;2023-03-14T08:40:05;97668.28;;;9.61;87.41
31483;BME280;18103;52.246;8.052;2023-03-14T08:42:38;97653.63;;;9.67;87.07
31483;BME280;18103;52.246;8.052;2023-03-14T08:45:08;97667.50;;;9.75;86.93
31483;BME280;18103;52.246;8.052;2023-03-14T08:47:34;97665.94;;;9.81;86.85
31483;BME280;18103;52.246;8.052;2023-03-14T08:49:59;97667.22;;;9.85;86.67
31483;BME280;18103;52.246;8.052;2023-03-14T08:52:27;97672.41;;;9.93;87.01
31483;BME280;18103;52.246;8.052;2023-03-14T08:54:55;97674.94;;;9.87;87.83
31483;BME280;18103;52.246;8.052;2023-03-14T08:57:21;97674.56;;;9.90;87.63
31483;BME280;18103;52.246;8.052;2023-03-14T08:59:47;97673.22;;;9.79;88.06
31483;BME280;18103;52.246;8.052;2023-03-14T09:02:12;97682.56;;;9.82;88.57
31483;BME280;18103;52.246;8.052;2023-03-14T09:04:40;97678.94;;;9.83;88.90
31483;BME280;18103;52.246;8.052;2023-03-14T09:07:06;97679.50;;;9.78;89.11
31483;BME280;18103;52.246;8.052;2023-03-14T09:09:32;97676.94;;;9.85;89.16
31483;BME280;18103;52.246;8.052;2023-03-14T09:12:00;97674.28;;;9.85;89.10
31483;BME280;18103;52.246;8.052;2023-03-14T09:14:25;97680.03;;;9.88;88.98
31483;BME280;18103;52.246;8.052;2023-03-14T09:16:53;97676.13;;;9.84;89.22
31483;BME280;18103;52.246;8.052;2023-03-14T09:19:20;97681.84;;;9.88;88.98
31483;BME280;18103;52.246;8.052;2023-03-14T09:21:46;97692.19;;;9.74;89.70
31483;BME280;18103;52.246;8.052;2023-03-14T09:24:11;97684.75;;;9.78;89.58
31483;BME280;18103;52.246;8.052;2023-03-14T09:26:39;97695.63;;;9.75;89.83
31483;BME280;18103;52.246;8.052;2023-03-14T09:29:05;97700.81;;;9.83;89.83
31483;BME280;18103;52.246;8.052;2023-03-14T09:31:33;97706.28;;;9.82;89.91
31483;BME280;18103;52.246;8.052;2023-03-14T09:33:58;97733.25;;;9.69;90.63
31483;BME280;18103;52.246;8.052;2023-03-14T09:36:24;97715.00;;;9.67;90.76
31483;BME280;18103;52.246;8.052;2023-03-14T09:38:49;97727.22;;;9.45;90.00
31483;BME280;18103;52.246;8.052;2023-03-14T09:43:47;97751.09;;;9.44;90.80
31483;BME280;18103;52.246;8.052;2023-03-14T09:46:16;97788.50;;;9.39;90.63
31483;BME280;18103;52.246;8.052;2023-03-14T09:48:46;97805.19;;;9.00;89.46
31483;BME280;18103;52.246;8.052;2023-03-14T09:51:17;97814.69;;;8.78;88.62
31483;BME280;18103;52.246;8.052;2023-03-14T09:53:48;97803.88;;;8.64;88.75
31483;BME280;18103;52.246;8.052;2023-03-14T09:58:51;97810.19;;;8.55;88.93
31483;BME280;18103;52.246;8.052;2023-03-14T10:01:23;97818.41;;;8.52;88.91
31483;BME280;18103;52.246;8.052;2023-03-14T10:03:50;97828.06;;;8.60;89.56
31483;BME280;18103;52.246;8.052;2023-03-14T10:06:17;97847.47;;;8.50;89.70
31483;BME280;18103;52.246;8.052;2023-03-14T10:08:44;97860.81;;;8.32;89.70
31483;BME280;18103;52.246;8.052;2023-03-14T10:11:15;97884.16;;;8.27;89.50
31483;BME280;18103;52.246;8.052;2023-03-14T10:14:10;97886.31;;;8.07;89.39
31483;BME280;18103;52.246;8.052;2023-03-14T10:16:45;97896.34;;;7.95;88.91
31483;BME280;18103;52.246;8.052;2023-03-14T10:19:12;97911.28;;;7.86;89.01
31483;BME280;18103;52.246;8.052;2023-03-14T10:21:51;97934.06;;;7.53;88.22
31483;BME280;18103;52.246;8.052;2023-03-14T10:27:02;97954.28;;;7.18;87.48
31483;BME280;18103;52.246;8.052;2023-03-14T10:29:33;97977.00;;;7.01;87.58
31483;BME280;18103;52.246;8.052;2023-03-14T10:32:03;97984.16;;;6.91;87.48
31483;BME280;18103;52.246;8.052;2023-03-14T10:34:31;98006.66;;;7.01;88.20
31483;BME280;18103;52.246;8.052;2023-03-14T10:37:21;98018.97;;;6.75;87.75
31483;BME280;18103;52.246;8.052;2023-03-14T10:39:55;98036.88;;;6.61;87.86
31483;BME280;18103;52.246;8.052;2023-03-14T10:42:27;98045.47;;;6.45;88.38
31483;BME280;18103;52.246;8.052;2023-03-14T10:45:02;98057.28;;;6.49;87.58
31483;BME280;18103;52.246;8.052;2023-03-14T10:47:29;98074.50;;;6.52;87.66
31483;BME280;18103;52.246;8.052;2023-03-14T10:49:56;98101.53;;;6.53;87.92
31483;BME280;18103;52.246;8.052;2023-03-14T10:52:27;98112.69;;;6.37;87.15
31483;BME280;18103;52.246;8.052;2023-03-14T10:55:01;98124.94;;;6.18;86.98
31483;BME280;18103;52.246;8.052;2023-03-14T10:57:29;98130.03;;;6.02;86.77
31483;BME280;18103;52.246;8.052;2023-03-14T10:59:57;98154.56;;;6.01;86.41
31483;BME280;18103;52.246;8.052;2023-03-14T11:08:11;98214.53;;;5.84;86.88
31483;BME280;18103;52.246;8.052;2023-03-14T11:10:39;98209.41;;;5.92;86.29
31483;BME280;18103;52.246;8.052;2023-03-14T11:13:24;98221.41;;;5.85;86.54
31483;BME280;18103;52.246;8.052;2023-03-14T11:16:09;98219.78;;;5.74;86.60
31483;BME280;18103;52.246;8.052;2023-03-14T11:19:09;98264.56;;;5.81;86.26
31483;BME280;18103;52.246;8.052;2023-03-14T11:22:05;98256.72;;;5.81;86.03
31483;BME280;18103;52.246;8.052;2023-03-14T11:29:41;98302.31;;;5.78;85.43
31483;BME280;18103;52.246;8.052;2023-03-14T11:32:15;98300.63;;;5.87;85.60
31483;BME280;18103;52.246;8.052;2023-03-14T11:34:54;98314.69;;;5.86;85.69
31483;BME280;18103;52.246;8.052;2023-03-14T11:37:26;98329.44;;;5.77;85.16
31483;BME280;18103;52.246;8.052;2023-03-14T11:42:49;98338.00;;;5.99;85.76
31483;BME280;18103;52.246;8.052;2023-03-14T11:45:25;98335.75;;;5.94;86.07
31483;BME280;18103;52.246;8.052;2023-03-14T11:50:37;98344.16;;;6.18;85.66
31483;BME280;18103;52.246;8.052;2023-03-14T11:53:09;98360.53;;;6.20;85.93
31483;BME280;18103;52.246;8.052;2023-03-14T11:55:40;98356.16;;;6.20;85.18
31483;BME280;18103;52.246;8.052;2023-03-14T11:58:20;98361.25;;;6.12;85.03
31483;BME280;18103;52.246;8.052;2023-03-14T12:00:49;98372.41;;;6.14;84.67
31483;BME280;18103;52.246;8.052;2023-03-14T12:08:42;98394.72;;;6.28;85.35
31483;BME280;18103;52.246;8.052;2023-03-14T12:14:03;98406.34;;;6.63;85.27
31483;BME280;18103;52.246;8.052;2023-03-14T12:16:46;98424.97;;;6.60;84.49
31483;BME280;18103;52.246;8.052;2023-03-14T12:21:53;98427.06;;;6.94;84.17
31483;BME280;18103;52.246;8.052;2023-03-14T12:24:28;98427.94;;;6.84;83.32
31483;BME280;18103;52.246;8.052;2023-03-14T12:27:02;98444.66;;;6.74;83.11
31483;BME280;18103;52.246;8.052;2023-03-14T12:40:10;98519.91;;;5.95;84.59
31483;BME280;18103;52.246;8.052;2023-03-14T12:45:26;98510.41;;;6.23;84.77
31483;BME280;18103;52.246;8.052;2023-03-14T12:47:54;98522.28;;;6.37;84.92
31483;BME280;18103;52.246;8.052;2023-03-14T12:50:26;98517.03;;;6.27;84.32
31483;BME280;18103;52.246;8.052;2023-03-14T12:58:03;98556.88;;;6.50;84.56
31483;BME280;18103;52.246;8.052;2023-03-14T13:00:33;98554.38;;;6.49;83.91
31483;BME280;18103;52.246;8.052;2023-03-14T13:05:51;98590.13;;;6.40;84.34
31483;BME280;18103;52.246;8.052;2023-03-14T13:11:16;98601.69;;;6.28;80.02
31483;BME280;18103;52.246;8.052;2023-03-14T13:13:47;98603.91;;;6.23;80.09
31483;BME280;18103;52.246;8.052;2023-03-14T13:16:19;98621.03;;;6.27;79.40
31483;BME280;18103;52.246;8.052;2023-03-14T13:18:47;98614.78;;;6.18;78.69
31483;BME280;18103;52.246;8.052;2023-03-14T13:24:34;98639.22;;;6.19;79.81
31483;BME280;18103;52.246;8.052;2023-03-14T13:27:00;98645.84;;;6.32;79.39
31483;BME280;18103;52.246;8.052;2023-03-14T13:29:30;98648.91;;;6.67;80.18
31483;BME280;18103;52.246;8.052;2023-03-14T13:32:16;98645.97;;;6.99;77.28
31483;BME280;18103;52.246;8.052;2023-03-14T13:34:42;98661.84;;;6.98;74.65
31483;BME280;18103;52.246;8.052;2023-03-14T13:37:24;98666.16;;;6.89;74.75
31483;BME280;18103;52.246;8.052;2023-03-14T13:39:54;98671.41;;;6.79;73.50
31483;BME280;18103;52.246;8.052;2023-03-14T13:42:24;98691.56;;;6.79;73.83
31483;BME280;18103;52.246;8.052;2023-03-14T13:44:56;98695.81;;;6.70;73.48
31483;BME280;18103;52.246;8.052;2023-03-14T13:47:24;98705.31;;;6.61;72.38
31483;BME280;18103;52.246;8.052;2023-03-14T13:49:50;98710.56;;;6.61;71.86
31483;BME280;18103;52.246;8.052;2023-03-14T13:52:37;98708.66;;;6.54;69.56
31483;BME280;18103;52.246;8.052;2023-03-14T13:55:04;98720.66;;;6.66;69.59
31483;BME280;18103;52.246;8.052;2023-03-14T13:57:47;98728.81;;;6.92;69.90
31483;BME280;18103;52.246;8.052;2023-03-14T14:00:22;98733.53;;;6.89;68.43
31483;BME280;18103;52.246;8.052;2023-03-14T14:02:53;98743.16;;;6.88;68.54
31483;BME280;18103;52.246;8.052;2023-03-14T14:05:22;98751.88;;;6.79;68.41
31483;BME280;18103;52.246;8.052;2023-03-14T14:07:48;98753.88;;;6.56;66.32
31483;BME280;18103;52.246;8.052;2023-03-14T14:10:15;98762.19;;;6.61;67.59
31483;BME280;18103;52.246;8.052;2023-03-14T14:12:55;98772.28;;;6.75;68.32
31483;BME280;18103;52.246;8.052;2023-03-14T14:15:28;98775.84;;;6.64;67.79
31483;BME280;18103;52.246;8.052;2023-03-14T14:18:01;98796.53;;;6.58;67.21
31483;BME280;18103;52.246;8.052;2023-03-14T14:23:01;98805.91;;;6.60;66.49
31483;BME280;18103;52.246;8.052;2023-03-14T14:25:28;98807.53;;;6.51;64.47
31483;BME280;18103;52.246;8.052;2023-03-14T14:27:54;98804.94;;;6.61;65.06
31483;BME280;18103;52.246;8.052;2023-03-14T14:32:47;98823.72;;;6.57;65.12
31483;BME280;18103;52.246;8.052;2023-03-14T14:37:49;98846.69;;;6.43;64.00